sensor_id;sensor_type;location;lat;lon;timestamp;P1;durP1;ratioP1;P2;durP2;ratioP2
22754;SDS011;11544;42.020;23.094;2024-03-25T00:01:33;3.92;;;0.90;;
22754;SDS011;11544;42.020;23.094;2024-03-25T00:03:59;0.90;;;0.50;;
22754;SDS011;11544;42.020;23.094;2024-03-25T00:06:25;1.35;;;0.50;;
22754;SDS011;11544;42.020;23.094;2024-03-25T00:08:51;0.80;;;0.30;;
22754;SDS011;11544;42.020;23.094;2024-03-25T00:11:17;1.67;;;0.38;;
22754;SDS011;11544;42.020;23.094;2024-03-25T00:13:43;2.70;;;0.30;;
22754;SDS011;11544;42.020;23.094;2024-03-25T00:16:08;0.45;;;0.20;;
22754;SDS011;11544;42.020;23.094;2024-03-25T00:18:34;0.10;;;0.10;;
22754;SDS011;11544;42.020;23.094;2024-03-25T00:21:00;1.20;;;0.10;;
22754;SDS011;11544;42.020;23.094;2024-03-25T00:23:26;1.58;;;0.28;;
22754;SDS011;11544;42.020;23.094;2024-03-25T00:25:52;1.13;;;0.30;;
22754;SDS011;11544;42.020;23.094;2024-03-25T00:28:18;1.08;;;0.38;;
22754;SDS011;11544;42.020;23.094;2024-03-25T00:30:44;0.28;;;0.15;;
22754;SDS011;11544;42.020;23.094;2024-03-25T00:33:10;0.20;;;0.20;;
22754;SDS011;11544;42.020;23.094;2024-03-25T00:35:36;0.88;;;0.20;;
22754;SDS011;11544;42.020;23.094;2024-03-25T00:38:02;0.30;;;0.20;;
22754;SDS011;11544;42.020;23.094;2024-03-25T00:40:29;0.32;;;0.15;;
22754;SDS011;11544;42.020;23.094;2024-03-25T00:42:55;1.55;;;0.32;;
22754;SDS011;11544;42.020;23.094;2024-03-25T00:45:21;0.10;;;0.10;;
22754;SDS011;11544;42.020;23.094;2024-03-25T00:47:47;0.00;;;0.00;;
22754;SDS011;11544;42.020;23.094;2024-03-25T00:50:13;0.38;;;0.10;;
22754;SDS011;11544;42.020;23.094;2024-03-25T00:52:40;0.08;;;0.08;;
22754;SDS011;11544;42.020;23.094;2024-03-25T00:55:06;0.03;;;0.03;;
22754;SDS011;11544;42.020;23.094;2024-03-25T00:57:33;0.10;;;0.10;;
22754;SDS011;11544;42.020;23.094;2024-03-25T00:59:59;0.10;;;0.10;;
22754;SDS011;11544;42.020;23.094;2024-03-25T01:02:25;1.30;;;0.10;;
22754;SDS011;11544;42.020;23.094;2024-03-25T01:04:52;0.20;;;0.17;;
22754;SDS011;11544;42.020;23.094;2024-03-25T01:07:19;0.50;;;0.20;;
22754;SDS011;11544;42.020;23.094;2024-03-25T01:09:45;2.65;;;0.30;;
22754;SDS011;11544;42.020;23.094;2024-03-25T01:12:11;0.55;;;0.40;;
22754;SDS011;11544;42.020;23.094;2024-03-25T01:14:37;0.55;;;0.30;;
22754;SDS011;11544;42.020;23.094;2024-03-25T01:17:03;0.63;;;0.20;;
22754;SDS011;11544;42.020;23.094;2024-03-25T01:19:29;1.70;;;0.40;;
22754;SDS011;11544;42.020;23.094;2024-03-25T01:21:55;0.28;;;0.25;;
22754;SDS011;11544;42.020;23.094;2024-03-25T01:24:21;0.40;;;0.20;;
22754;SDS011;11544;42.020;23.094;2024-03-25T01:26:46;0.55;;;0.20;;
22754;SDS011;11544;42.020;23.094;2024-03-25T01:29:12;0.22;;;0.20;;
22754;SDS011;11544;42.020;23.094;2024-03-25T01:31:38;0.32;;;0.20;;
22754;SDS011;11544;42.020;23.094;2024-03-25T01:34:04;0.25;;;0.22;;
22754;SDS011;11544;42.020;23.094;2024-03-25T01:36:31;0.82;;;0.40;;
22754;SDS011;11544;42.020;23.094;2024-03-25T01:38:56;1.05;;;0.30;;
22754;SDS011;11544;42.020;23.094;2024-03-25T01:41:22;1.20;;;0.38;;
22754;SDS011;11544;42.020;23.094;2024-03-25T01:43:48;0.55;;;0.35;;
22754;SDS011;11544;42.020;23.094;2024-03-25T01:46:15;2.22;;;0.20;;
22754;SDS011;11544;42.020;23.094;2024-03-25T01:48:43;0.22;;;0.22;;
22754;SDS011;11544;42.020;23.094;2024-03-25T01:51:09;1.95;;;0.30;;
22754;SDS011;11544;42.020;23.094;2024-03-25T01:53:38;0.45;;;0.43;;
22754;SDS011;11544;42.020;23.094;2024-03-25T01:56:05;0.40;;;0.40;;
22754;SDS011;11544;42.020;23.094;2024-03-25T01:58:31;0.38;;;0.35;;
22754;SDS011;11544;42.020;23.094;2024-03-25T02:00:57;1.27;;;0.40;;
22754;SDS011;11544;42.020;23.094;2024-03-25T02:03:26;0.60;;;0.38;;
22754;SDS011;11544;42.020;23.094;2024-03-25T02:06:00;0.40;;;0.40;;
22754;SDS011;11544;42.020;23.094;2024-03-25T02:08:29;0.30;;;0.30;;
22754;SDS011;11544;42.020;23.094;2024-03-25T02:10:56;0.20;;;0.20;;
22754;SDS011;11544;42.020;23.094;2024-03-25T02:13:23;0.38;;;0.30;;
22754;SDS011;11544;42.020;23.094;2024-03-25T02:15:49;0.32;;;0.20;;
22754;SDS011;11544;42.020;23.094;2024-03-25T02:18:17;0.93;;;0.40;;
22754;SDS011;11544;42.020;23.094;2024-03-25T02:20:43;0.80;;;0.30;;
22754;SDS011;11544;42.020;23.094;2024-03-25T02:23:10;0.68;;;0.50;;
22754;SDS011;11544;42.020;23.094;2024-03-25T02:25:38;0.63;;;0.50;;
22754;SDS011;11544;42.020;23.094;2024-03-25T02:28:05;0.30;;;0.30;;
22754;SDS011;11544;42.020;23.094;2024-03-25T02:30:31;0.30;;;0.30;;
22754;SDS011;11544;42.020;23.094;2024-03-25T02:32:57;0.35;;;0.35;;
22754;SDS011;11544;42.020;23.094;2024-03-25T02:35:23;0.47;;;0.47;;
22754;SDS011;11544;42.020;23.094;2024-03-25T02:37:51;0.55;;;0.40;;
22754;SDS011;11544;42.020;23.094;2024-03-25T02:40:17;1.70;;;0.47;;
22754;SDS011;11544;42.020;23.094;2024-03-25T02:42:44;0.40;;;0.40;;
22754;SDS011;11544;42.020;23.094;2024-03-25T02:45:11;0.40;;;0.40;;
22754;SDS011;11544;42.020;23.094;2024-03-25T02:47:36;1.88;;;0.65;;
22754;SDS011;11544;42.020;23.094;2024-03-25T02:50:02;0.68;;;0.50;;
22754;SDS011;11544;42.020;23.094;2024-03-25T02:52:28;0.40;;;0.40;;
22754;SDS011;11544;42.020;23.094;2024-03-25T02:54:54;0.40;;;0.40;;
22754;SDS011;11544;42.020;23.094;2024-03-25T02:57:20;0.43;;;0.43;;
22754;SDS011;11544;42.020;23.094;2024-03-25T02:59:46;0.57;;;0.57;;
22754;SDS011;11544;42.020;23.094;2024-03-25T03:02:12;1.85;;;0.60;;
22754;SDS011;11544;42.020;23.094;2024-03-25T03:04:38;0.80;;;0.50;;
22754;SDS011;11544;42.020;23.094;2024-03-25T03:07:04;0.77;;;0.55;;
22754;SDS011;11544;42.020;23.094;2024-03-25T03:09:30;1.42;;;0.60;;
22754;SDS011;11544;42.020;23.094;2024-03-25T03:11:56;0.55;;;0.50;;
22754;SDS011;11544;42.020;23.094;2024-03-25T03:14:22;0.70;;;0.70;;
22754;SDS011;11544;42.020;23.094;2024-03-25T03:16:48;0.52;;;0.50;;
22754;SDS011;11544;42.020;23.094;2024-03-25T03:19:14;0.85;;;0.60;;
22754;SDS011;11544;42.020;23.094;2024-03-25T03:21:40;1.90;;;1.00;;
22754;SDS011;11544;42.020;23.094;2024-03-25T03:24:06;1.08;;;0.98;;
22754;SDS011;11544;42.020;23.094;2024-03-25T03:26:33;1.10;;;1.00;;
22754;SDS011;11544;42.020;23.094;2024-03-25T03:28:59;1.10;;;0.93;;
22754;SDS011;11544;42.020;23.094;2024-03-25T03:31:25;1.38;;;1.20;;
22754;SDS011;11544;42.020;23.094;2024-03-25T03:33:51;1.35;;;1.25;;
22754;SDS011;11544;42.020;23.094;2024-03-25T03:36:18;1.38;;;1.13;;
22754;SDS011;11544;42.020;23.094;2024-03-25T03:38:45;2.17;;;0.88;;
22754;SDS011;11544;42.020;23.094;2024-03-25T03:41:11;2.00;;;1.17;;
22754;SDS011;11544;42.020;23.094;2024-03-25T03:43:37;1.02;;;0.90;;
22754;SDS011;11544;42.020;23.094;2024-03-25T03:46:03;1.98;;;0.90;;
22754;SDS011;11544;42.020;23.094;2024-03-25T03:48:29;0.80;;;0.80;;
22754;SDS011;11544;42.020;23.094;2024-03-25T03:50:55;2.17;;;1.20;;
22754;SDS011;11544;42.020;23.094;2024-03-25T03:53:21;0.82;;;0.82;;
22754;SDS011;11544;42.020;23.094;2024-03-25T03:55:57;1.63;;;0.80;;
22754;SDS011;11544;42.020;23.094;2024-03-25T03:58:25;0.85;;;0.60;;
22754;SDS011;11544;42.020;23.094;2024-03-25T04:00:51;0.80;;;0.80;;
22754;SDS011;11544;42.020;23.094;2024-03-25T04:03:17;1.27;;;0.65;;
22754;SDS011;11544;42.020;23.094;2024-03-25T04:05:44;1.65;;;0.90;;
22754;SDS011;11544;42.020;23.094;2024-03-25T04:08:10;1.65;;;1.20;;
22754;SDS011;11544;42.020;23.094;2024-03-25T04:10:37;0.50;;;0.50;;
22754;SDS011;11544;42.020;23.094;2024-03-25T04:13:03;3.17;;;0.70;;
22754;SDS011;11544;42.020;23.094;2024-03-25T04:15:32;0.95;;;0.70;;
22754;SDS011;11544;42.020;23.094;2024-03-25T04:17:58;1.48;;;0.68;;
22754;SDS011;11544;42.020;23.094;2024-03-25T04:20:24;2.72;;;0.73;;
22754;SDS011;11544;42.020;23.094;2024-03-25T04:22:50;0.47;;;0.47;;
22754;SDS011;11544;42.020;23.094;2024-03-25T04:25:15;1.40;;;0.70;;
22754;SDS011;11544;42.020;23.094;2024-03-25T04:27:42;0.80;;;0.80;;
22754;SDS011;11544;42.020;23.094;2024-03-25T04:30:09;0.80;;;0.80;;
22754;SDS011;11544;42.020;23.094;2024-03-25T04:32:37;1.15;;;1.05;;
22754;SDS011;11544;42.020;23.094;2024-03-25T04:35:04;1.60;;;1.23;;
22754;SDS011;11544;42.020;23.094;2024-03-25T04:37:31;2.15;;;1.30;;
22754;SDS011;11544;42.020;23.094;2024-03-25T04:39:58;1.40;;;1.27;;
22754;SDS011;11544;42.020;23.094;2024-03-25T04:42:24;1.88;;;1.10;;
22754;SDS011;11544;42.020;23.094;2024-03-25T04:44:49;1.52;;;1.02;;
22754;SDS011;11544;42.020;23.094;2024-03-25T04:47:16;1.90;;;0.90;;
22754;SDS011;11544;42.020;23.094;2024-03-25T04:49:42;1.80;;;1.20;;
22754;SDS011;11544;42.020;23.094;2024-03-25T04:52:08;1.85;;;1.33;;
22754;SDS011;11544;42.020;23.094;2024-03-25T04:54:34;1.75;;;0.68;;
22754;SDS011;11544;42.020;23.094;2024-03-25T04:57:00;1.58;;;0.57;;
22754;SDS011;11544;42.020;23.094;2024-03-25T04:59:26;2.00;;;0.80;;
22754;SDS011;11544;42.020;23.094;2024-03-25T05:01:52;0.70;;;0.40;;
22754;SDS011;11544;42.020;23.094;2024-03-25T05:04:18;0.55;;;0.40;;
22754;SDS011;11544;42.020;23.094;2024-03-25T05:06:45;0.70;;;0.57;;
22754;SDS011;11544;42.020;23.094;2024-03-25T05:09:11;1.42;;;1.00;;
22754;SDS011;11544;42.020;23.094;2024-03-25T05:11:37;1.77;;;1.23;;
22754;SDS011;11544;42.020;23.094;2024-03-25T05:14:03;1.33;;;0.80;;
22754;SDS011;11544;42.020;23.094;2024-03-25T05:16:28;2.05;;;1.10;;
22754;SDS011;11544;42.020;23.094;2024-03-25T05:18:54;1.58;;;1.13;;
22754;SDS011;11544;42.020;23.094;2024-03-25T05:21:20;2.65;;;1.30;;
22754;SDS011;11544;42.020;23.094;2024-03-25T05:23:46;3.05;;;1.27;;
22754;SDS011;11544;42.020;23.094;2024-03-25T05:26:11;4.20;;;1.30;;
22754;SDS011;11544;42.020;23.094;2024-03-25T05:28:37;3.75;;;1.70;;
22754;SDS011;11544;42.020;23.094;2024-03-25T05:31:09;1.98;;;1.67;;
22754;SDS011;11544;42.020;23.094;2024-03-25T05:33:35;3.10;;;2.10;;
22754;SDS011;11544;42.020;23.094;2024-03-25T05:36:02;3.40;;;2.38;;
22754;SDS011;11544;42.020;23.094;2024-03-25T05:38:28;4.90;;;2.33;;
22754;SDS011;11544;42.020;23.094;2024-03-25T05:40:55;3.60;;;2.17;;
22754;SDS011;11544;42.020;23.094;2024-03-25T05:43:22;2.50;;;1.70;;
22754;SDS011;11544;42.020;23.094;2024-03-25T05:45:51;2.10;;;1.35;;
22754;SDS011;11544;42.020;23.094;2024-03-25T05:48:20;1.00;;;0.90;;
22754;SDS011;11544;42.020;23.094;2024-03-25T05:50:56;2.90;;;0.80;;
22754;SDS011;11544;42.020;23.094;2024-03-25T05:53:25;1.40;;;1.08;;
22754;SDS011;11544;42.020;23.094;2024-03-25T05:55:52;2.65;;;1.40;;
22754;SDS011;11544;42.020;23.094;2024-03-25T05:58:18;3.28;;;2.30;;
22754;SDS011;11544;42.020;23.094;2024-03-25T06:00:46;2.70;;;1.92;;
22754;SDS011;11544;42.020;23.094;2024-03-25T06:03:13;3.22;;;1.27;;
22754;SDS011;11544;42.020;23.094;2024-03-25T06:05:39;1.20;;;1.10;;
22754;SDS011;11544;42.020;23.094;2024-03-25T06:08:05;2.65;;;1.20;;
22754;SDS011;11544;42.020;23.094;2024-03-25T06:10:39;2.42;;;1.65;;
22754;SDS011;11544;42.020;23.094;2024-03-25T06:13:05;2.42;;;1.52;;
22754;SDS011;11544;42.020;23.094;2024-03-25T06:15:30;2.58;;;1.23;;
22754;SDS011;11544;42.020;23.094;2024-03-25T06:17:56;1.52;;;0.85;;
22754;SDS011;11544;42.020;23.094;2024-03-25T06:20:22;2.03;;;1.25;;
22754;SDS011;11544;42.020;23.094;2024-03-25T06:22:48;2.90;;;1.50;;
22754;SDS011;11544;42.020;23.094;2024-03-25T06:25:14;4.35;;;1.23;;
22754;SDS011;11544;42.020;23.094;2024-03-25T06:27:40;1.80;;;1.30;;
22754;SDS011;11544;42.020;23.094;2024-03-25T06:30:06;2.33;;;1.33;;
22754;SDS011;11544;42.020;23.094;2024-03-25T06:32:51;1.65;;;1.35;;
22754;SDS011;11544;42.020;23.094;2024-03-25T06:35:35;1.65;;;1.30;;
22754;SDS011;11544;42.020;23.094;2024-03-25T06:38:01;1.92;;;1.70;;
22754;SDS011;11544;42.020;23.094;2024-03-25T06:40:27;3.05;;;2.10;;
22754;SDS011;11544;42.020;23.094;2024-03-25T06:42:52;3.92;;;1.90;;
22754;SDS011;11544;42.020;23.094;2024-03-25T06:45:18;3.72;;;2.17;;
22754;SDS011;11544;42.020;23.094;2024-03-25T06:47:44;5.15;;;2.20;;
22754;SDS011;11544;42.020;23.094;2024-03-25T06:50:10;2.22;;;1.45;;
22754;SDS011;11544;42.020;23.094;2024-03-25T06:52:36;2.92;;;2.30;;
22754;SDS011;11544;42.020;23.094;2024-03-25T06:55:01;3.22;;;2.20;;
22754;SDS011;11544;42.020;23.094;2024-03-25T06:57:28;4.97;;;2.33;;
22754;SDS011;11544;42.020;23.094;2024-03-25T06:59:54;6.20;;;3.40;;
22754;SDS011;11544;42.020;23.094;2024-03-25T07:02:23;5.97;;;3.75;;
22754;SDS011;11544;42.020;23.094;2024-03-25T07:04:49;3.40;;;2.47;;
22754;SDS011;11544;42.020;23.094;2024-03-25T07:07:15;2.85;;;2.42;;
22754;SDS011;11544;42.020;23.094;2024-03-25T07:09:41;4.95;;;3.25;;
22754;SDS011;11544;42.020;23.094;2024-03-25T07:12:07;3.85;;;2.72;;
22754;SDS011;11544;42.020;23.094;2024-03-25T07:14:32;6.03;;;2.78;;
22754;SDS011;11544;42.020;23.094;2024-03-25T07:16:58;4.13;;;2.63;;
22754;SDS011;11544;42.020;23.094;2024-03-25T07:19:24;7.28;;;2.90;;
22754;SDS011;11544;42.020;23.094;2024-03-25T07:21:50;3.47;;;2.65;;
22754;SDS011;11544;42.020;23.094;2024-03-25T07:24:16;4.18;;;3.25;;
22754;SDS011;11544;42.020;23.094;2024-03-25T07:26:42;5.72;;;3.42;;
22754;SDS011;11544;42.020;23.094;2024-03-25T07:29:08;4.97;;;3.30;;
22754;SDS011;11544;42.020;23.094;2024-03-25T07:31:34;5.78;;;2.95;;
22754;SDS011;11544;42.020;23.094;2024-03-25T07:34:00;6.10;;;2.95;;
22754;SDS011;11544;42.020;23.094;2024-03-25T07:36:26;3.90;;;3.17;;
22754;SDS011;11544;42.020;23.094;2024-03-25T07:38:52;4.90;;;3.60;;
22754;SDS011;11544;42.020;23.094;2024-03-25T07:41:18;4.63;;;3.22;;
22754;SDS011;11544;42.020;23.094;2024-03-25T07:43:43;4.65;;;2.85;;
22754;SDS011;11544;42.020;23.094;2024-03-25T07:46:09;4.65;;;3.28;;
22754;SDS011;11544;42.020;23.094;2024-03-25T07:48:35;4.03;;;2.88;;
22754;SDS011;11544;42.020;23.094;2024-03-25T07:51:04;4.45;;;3.20;;
22754;SDS011;11544;42.020;23.094;2024-03-25T07:53:30;5.13;;;3.42;;
22754;SDS011;11544;42.020;23.094;2024-03-25T07:55:57;7.22;;;3.45;;
22754;SDS011;11544;42.020;23.094;2024-03-25T07:58:23;7.47;;;3.80;;
22754;SDS011;11544;42.020;23.094;2024-03-25T08:00:50;6.10;;;3.70;;
22754;SDS011;11544;42.020;23.094;2024-03-25T08:03:28;4.43;;;3.10;;
22754;SDS011;11544;42.020;23.094;2024-03-25T08:05:54;4.20;;;3.25;;
22754;SDS011;11544;42.020;23.094;2024-03-25T08:08:20;5.32;;;3.60;;
22754;SDS011;11544;42.020;23.094;2024-03-25T08:10:49;6.78;;;4.13;;
22754;SDS011;11544;42.020;23.094;2024-03-25T08:13:18;6.72;;;3.95;;
22754;SDS011;11544;42.020;23.094;2024-03-25T08:15:48;5.15;;;3.78;;
22754;SDS011;11544;42.020;23.094;2024-03-25T08:18:25;4.57;;;3.47;;
22754;SDS011;11544;42.020;23.094;2024-03-25T08:20:51;5.97;;;3.95;;
22754;SDS011;11544;42.020;23.094;2024-03-25T08:23:17;5.40;;;3.97;;
22754;SDS011;11544;42.020;23.094;2024-03-25T08:25:43;6.22;;;3.70;;
22754;SDS011;11544;42.020;23.094;2024-03-25T08:28:17;6.45;;;3.63;;
22754;SDS011;11544;42.020;23.094;2024-03-25T08:30:43;4.63;;;3.05;;
22754;SDS011;11544;42.020;23.094;2024-03-25T08:33:09;5.35;;;2.85;;
22754;SDS011;11544;42.020;23.094;2024-03-25T08:35:36;5.28;;;2.90;;
22754;SDS011;11544;42.020;23.094;2024-03-25T08:38:09;3.83;;;3.10;;
22754;SDS011;11544;42.020;23.094;2024-03-25T08:40:35;3.97;;;3.08;;
22754;SDS011;11544;42.020;23.094;2024-03-25T08:43:01;4.78;;;4.10;;
22754;SDS011;11544;42.020;23.094;2024-03-25T08:45:27;4.47;;;3.40;;
22754;SDS011;11544;42.020;23.094;2024-03-25T08:48:02;5.30;;;3.53;;
22754;SDS011;11544;42.020;23.094;2024-03-25T08:50:39;7.15;;;2.78;;
22754;SDS011;11544;42.020;23.094;2024-03-25T08:53:08;7.63;;;3.33;;
22754;SDS011;11544;42.020;23.094;2024-03-25T08:55:50;5.20;;;3.20;;
22754;SDS011;11544;42.020;23.094;2024-03-25T08:58:19;6.30;;;3.58;;
22754;SDS011;11544;42.020;23.094;2024-03-25T09:00:52;4.05;;;3.30;;
22754;SDS011;11544;42.020;23.094;2024-03-25T09:03:27;4.22;;;3.22;;
22754;SDS011;11544;42.020;23.094;2024-03-25T09:06:05;4.05;;;3.05;;
22754;SDS011;11544;42.020;23.094;2024-03-25T09:08:46;7.55;;;3.80;;
22754;SDS011;11544;42.020;23.094;2024-03-25T09:11:31;4.95;;;2.65;;
22754;SDS011;11544;42.020;23.094;2024-03-25T09:14:03;4.78;;;2.80;;
22754;SDS011;11544;42.020;23.094;2024-03-25T09:16:33;3.83;;;2.88;;
22754;SDS011;11544;42.020;23.094;2024-03-25T09:18:59;3.08;;;2.70;;
22754;SDS011;11544;42.020;23.094;2024-03-25T09:21:25;5.53;;;2.53;;
22754;SDS011;11544;42.020;23.094;2024-03-25T09:23:58;3.60;;;2.50;;
22754;SDS011;11544;42.020;23.094;2024-03-25T09:26:28;2.80;;;2.10;;
22754;SDS011;11544;42.020;23.094;2024-03-25T09:28:55;3.70;;;2.58;;
22754;SDS011;11544;42.020;23.094;2024-03-25T09:31:24;4.28;;;3.10;;
22754;SDS011;11544;42.020;23.094;2024-03-25T09:33:50;4.63;;;2.90;;
22754;SDS011;11544;42.020;23.094;2024-03-25T09:36:16;3.58;;;3.08;;
22754;SDS011;11544;42.020;23.094;2024-03-25T09:38:45;5.18;;;2.80;;
22754;SDS011;11544;42.020;23.094;2024-03-25T09:41:11;3.97;;;2.55;;
22754;SDS011;11544;42.020;23.094;2024-03-25T09:43:47;3.08;;;2.67;;
22754;SDS011;11544;42.020;23.094;2024-03-25T09:46:17;3.95;;;2.88;;
22754;SDS011;11544;42.020;23.094;2024-03-25T09:48:46;2.88;;;2.58;;
22754;SDS011;11544;42.020;23.094;2024-03-25T09:51:12;3.78;;;2.60;;
22754;SDS011;11544;42.020;23.094;2024-03-25T09:53:38;4.00;;;2.88;;
22754;SDS011;11544;42.020;23.094;2024-03-25T09:56:07;3.05;;;2.42;;
22754;SDS011;11544;42.020;23.094;2024-03-25T09:58:36;5.22;;;3.03;;
22754;SDS011;11544;42.020;23.094;2024-03-25T10:01:03;5.30;;;2.58;;
22754;SDS011;11544;42.020;23.094;2024-03-25T10:03:29;6.38;;;2.80;;
22754;SDS011;11544;42.020;23.094;2024-03-25T10:05:55;5.40;;;3.03;;
22754;SDS011;11544;42.020;23.094;2024-03-25T10:08:22;2.83;;;2.45;;
22754;SDS011;11544;42.020;23.094;2024-03-25T10:10:56;5.55;;;3.20;;
22754;SDS011;11544;42.020;23.094;2024-03-25T10:13:23;4.00;;;2.83;;
22754;SDS011;11544;42.020;23.094;2024-03-25T10:15:54;4.60;;;3.33;;
22754;SDS011;11544;42.020;23.094;2024-03-25T10:18:20;4.25;;;3.00;;
22754;SDS011;11544;42.020;23.094;2024-03-25T10:20:51;3.38;;;2.50;;
22754;SDS011;11544;42.020;23.094;2024-03-25T10:23:22;2.95;;;2.60;;
22754;SDS011;11544;42.020;23.094;2024-03-25T10:25:48;2.60;;;2.38;;
22754;SDS011;11544;42.020;23.094;2024-03-25T10:28:14;2.88;;;2.20;;
22754;SDS011;11544;42.020;23.094;2024-03-25T10:30:40;2.13;;;1.92;;
22754;SDS011;11544;42.020;23.094;2024-03-25T10:33:07;2.60;;;2.15;;
22754;SDS011;11544;42.020;23.094;2024-03-25T10:35:35;4.63;;;2.75;;
22754;SDS011;11544;42.020;23.094;2024-03-25T10:38:03;3.60;;;3.00;;
22754;SDS011;11544;42.020;23.094;2024-03-25T10:40:32;4.22;;;3.10;;
22754;SDS011;11544;42.020;23.094;2024-03-25T10:43:07;4.45;;;3.40;;
22754;SDS011;11544;42.020;23.094;2024-03-25T10:50:56;3.90;;;2.47;;
22754;SDS011;11544;42.020;23.094;2024-03-25T10:53:25;5.78;;;2.70;;
22754;SDS011;11544;42.020;23.094;2024-03-25T10:55:55;3.97;;;2.88;;
22754;SDS011;11544;42.020;23.094;2024-03-25T10:58:21;2.92;;;2.60;;
22754;SDS011;11544;42.020;23.094;2024-03-25T11:00:49;6.03;;;3.03;;
22754;SDS011;11544;42.020;23.094;2024-03-25T11:03:17;5.88;;;2.70;;
22754;SDS011;11544;42.020;23.094;2024-03-25T11:05:43;4.53;;;2.90;;
22754;SDS011;11544;42.020;23.094;2024-03-25T11:08:11;3.40;;;2.92;;
22754;SDS011;11544;42.020;23.094;2024-03-25T11:10:44;3.85;;;2.20;;
22754;SDS011;11544;42.020;23.094;2024-03-25T11:13:13;4.65;;;2.75;;
22754;SDS011;11544;42.020;23.094;2024-03-25T11:15:40;3.10;;;2.13;;
22754;SDS011;11544;42.020;23.094;2024-03-25T11:18:11;3.33;;;2.35;;
22754;SDS011;11544;42.020;23.094;2024-03-25T11:20:40;3.05;;;2.13;;
22754;SDS011;11544;42.020;23.094;2024-03-25T11:23:10;1.58;;;1.48;;
22754;SDS011;11544;42.020;23.094;2024-03-25T11:25:40;2.60;;;2.08;;
22754;SDS011;11544;42.020;23.094;2024-03-25T11:28:10;3.33;;;1.55;;
22754;SDS011;11544;42.020;23.094;2024-03-25T11:30:37;4.78;;;2.13;;
22754;SDS011;11544;42.020;23.094;2024-03-25T11:33:06;2.55;;;1.60;;
22754;SDS011;11544;42.020;23.094;2024-03-25T11:35:39;4.22;;;1.80;;
22754;SDS011;11544;42.020;23.094;2024-03-25T11:38:08;3.25;;;1.50;;
22754;SDS011;11544;42.020;23.094;2024-03-25T11:40:34;4.90;;;1.80;;
22754;SDS011;11544;42.020;23.094;2024-03-25T11:43:01;3.17;;;1.60;;
22754;SDS011;11544;42.020;23.094;2024-03-25T11:45:27;2.47;;;1.60;;
22754;SDS011;11544;42.020;23.094;2024-03-25T11:47:53;4.50;;;1.77;;
22754;SDS011;11544;42.020;23.094;2024-03-25T11:50:20;4.05;;;2.17;;
22754;SDS011;11544;42.020;23.094;2024-03-25T11:52:46;4.90;;;1.92;;
22754;SDS011;11544;42.020;23.094;2024-03-25T11:55:18;4.22;;;2.60;;
22754;SDS011;11544;42.020;23.094;2024-03-25T11:57:44;5.45;;;2.53;;
22754;SDS011;11544;42.020;23.094;2024-03-25T12:00:11;3.30;;;2.25;;
22754;SDS011;11544;42.020;23.094;2024-03-25T12:02:43;5.68;;;2.42;;
22754;SDS011;11544;42.020;23.094;2024-03-25T12:05:10;2.97;;;2.03;;
22754;SDS011;11544;42.020;23.094;2024-03-25T12:07:37;2.50;;;2.20;;
22754;SDS011;11544;42.020;23.094;2024-03-25T12:10:04;3.33;;;2.63;;
22754;SDS011;11544;42.020;23.094;2024-03-25T12:12:48;3.28;;;2.25;;
22754;SDS011;11544;42.020;23.094;2024-03-25T12:15:16;5.68;;;2.25;;
22754;SDS011;11544;42.020;23.094;2024-03-25T12:17:42;3.20;;;1.92;;
22754;SDS011;11544;42.020;23.094;2024-03-25T12:20:09;5.57;;;2.15;;
22754;SDS011;11544;42.020;23.094;2024-03-25T12:22:36;2.45;;;2.20;;
22754;SDS011;11544;42.020;23.094;2024-03-25T12:25:05;3.15;;;2.85;;
22754;SDS011;11544;42.020;23.094;2024-03-25T12:27:33;2.92;;;2.63;;
22754;SDS011;11544;42.020;23.094;2024-03-25T12:30:09;2.40;;;1.90;;
22754;SDS011;11544;42.020;23.094;2024-03-25T12:35:02;3.05;;;2.22;;
22754;SDS011;11544;42.020;23.094;2024-03-25T12:37:30;1.98;;;1.60;;
22754;SDS011;11544;42.020;23.094;2024-03-25T12:39:56;2.97;;;2.10;;
22754;SDS011;11544;42.020;23.094;2024-03-25T12:42:25;2.33;;;2.13;;
22754;SDS011;11544;42.020;23.094;2024-03-25T12:44:52;4.13;;;2.55;;
22754;SDS011;11544;42.020;23.094;2024-03-25T12:47:22;3.50;;;2.17;;
22754;SDS011;11544;42.020;23.094;2024-03-25T12:49:48;2.50;;;2.30;;
22754;SDS011;11544;42.020;23.094;2024-03-25T12:52:14;2.90;;;2.25;;
22754;SDS011;11544;42.020;23.094;2024-03-25T12:54:40;3.90;;;3.22;;
22754;SDS011;11544;42.020;23.094;2024-03-25T12:57:10;2.17;;;1.98;;
22754;SDS011;11544;42.020;23.094;2024-03-25T12:59:37;3.20;;;2.72;;
22754;SDS011;11544;42.020;23.094;2024-03-25T13:02:03;6.00;;;3.42;;
22754;SDS011;11544;42.020;23.094;2024-03-25T13:04:29;5.93;;;3.35;;
22754;SDS011;11544;42.020;23.094;2024-03-25T13:06:55;6.95;;;3.20;;
22754;SDS011;11544;42.020;23.094;2024-03-25T13:09:21;3.08;;;2.60;;
22754;SDS011;11544;42.020;23.094;2024-03-25T13:11:47;4.53;;;2.40;;
22754;SDS011;11544;42.020;23.094;2024-03-25T13:14:13;4.68;;;2.38;;
22754;SDS011;11544;42.020;23.094;2024-03-25T13:16:41;8.65;;;2.40;;
22754;SDS011;11544;42.020;23.094;2024-03-25T13:19:07;4.68;;;2.95;;
22754;SDS011;11544;42.020;23.094;2024-03-25T13:21:33;2.03;;;1.63;;
22754;SDS011;11544;42.020;23.094;2024-03-25T13:23:59;8.65;;;2.25;;
22754;SDS011;11544;42.020;23.094;2024-03-25T13:26:26;3.03;;;2.55;;
22754;SDS011;11544;42.020;23.094;2024-03-25T13:28:52;4.10;;;2.45;;
22754;SDS011;11544;42.020;23.094;2024-03-25T13:31:19;3.25;;;2.33;;
22754;SDS011;11544;42.020;23.094;2024-03-25T13:33:45;5.50;;;2.45;;
22754;SDS011;11544;42.020;23.094;2024-03-25T13:36:11;2.97;;;2.75;;
22754;SDS011;11544;42.020;23.094;2024-03-25T13:38:37;3.70;;;2.30;;
22754;SDS011;11544;42.020;23.094;2024-03-25T13:41:03;6.75;;;3.78;;
22754;SDS011;11544;42.020;23.094;2024-03-25T13:43:31;5.38;;;2.85;;
22754;SDS011;11544;42.020;23.094;2024-03-25T13:45:57;2.58;;;2.20;;
22754;SDS011;11544;42.020;23.094;2024-03-25T13:48:24;3.08;;;1.90;;
22754;SDS011;11544;42.020;23.094;2024-03-25T13:50:52;2.88;;;2.20;;
22754;SDS011;11544;42.020;23.094;2024-03-25T13:53:20;1.70;;;1.60;;
22754;SDS011;11544;42.020;23.094;2024-03-25T13:55:50;2.35;;;1.60;;
22754;SDS011;11544;42.020;23.094;2024-03-25T13:58:16;2.35;;;2.15;;
22754;SDS011;11544;42.020;23.094;2024-03-25T14:00:42;1.80;;;1.70;;
22754;SDS011;11544;42.020;23.094;2024-03-25T14:03:08;2.80;;;2.00;;
22754;SDS011;11544;42.020;23.094;2024-03-25T14:05:36;2.30;;;2.10;;
22754;SDS011;11544;42.020;23.094;2024-03-25T14:08:02;2.60;;;2.38;;
22754;SDS011;11544;42.020;23.094;2024-03-25T14:10:29;2.50;;;2.30;;
22754;SDS011;11544;42.020;23.094;2024-03-25T14:12:55;2.70;;;2.38;;
22754;SDS011;11544;42.020;23.094;2024-03-25T14:15:21;3.90;;;2.40;;
22754;SDS011;11544;42.020;23.094;2024-03-25T14:17:48;3.80;;;2.38;;
22754;SDS011;11544;42.020;23.094;2024-03-25T14:20:14;2.78;;;2.20;;
22754;SDS011;11544;42.020;23.094;2024-03-25T14:22:40;2.42;;;2.05;;
22754;SDS011;11544;42.020;23.094;2024-03-25T14:25:07;2.97;;;2.65;;
22754;SDS011;11544;42.020;23.094;2024-03-25T14:27:34;4.35;;;2.80;;
22754;SDS011;11544;42.020;23.094;2024-03-25T14:30:03;2.60;;;2.40;;
22754;SDS011;11544;42.020;23.094;2024-03-25T14:32:30;2.60;;;2.30;;
22754;SDS011;11544;42.020;23.094;2024-03-25T14:34:59;2.75;;;2.33;;
22754;SDS011;11544;42.020;23.094;2024-03-25T14:37:30;2.58;;;2.38;;
22754;SDS011;11544;42.020;23.094;2024-03-25T14:39:56;4.50;;;2.30;;
22754;SDS011;11544;42.020;23.094;2024-03-25T14:42:25;6.85;;;2.53;;